sensor_id;sensor_type;location;lat;lon;timestamp;P1;durP1;ratioP1;P2;durP2;ratioP2
69126;SDS011;56688;50.234;19.292;2022-09-12T00:01:21;12.40;;;7.20;;
69126;SDS011;56688;50.234;19.292;2022-09-12T00:03:53;11.20;;;7.10;;
69126;SDS011;56688;50.234;19.292;2022-09-12T00:06:23;13.20;;;8.00;;
69126;SDS011;56688;50.234;19.292;2022-09-12T00:08:54;13.70;;;8.70;;
69126;SDS011;56688;50.234;19.292;2022-09-12T00:11:22;14.20;;;8.40;;
69126;SDS011;56688;50.234;19.292;2022-09-12T00:13:50;13.60;;;8.30;;
69126;SDS011;56688;50.234;19.292;2022-09-12T00:16:22;13.30;;;8.20;;
69126;SDS011;56688;50.234;19.292;2022-09-12T00:18:51;11.10;;;7.80;;
69126;SDS011;56688;50.234;19.292;2022-09-12T00:21:19;13.90;;;8.40;;
69126;SDS011;56688;50.234;19.292;2022-09-12T00:23:47;11.60;;;8.30;;
69126;SDS011;56688;50.234;19.292;2022-09-12T00:26:16;14.00;;;9.20;;
69126;SDS011;56688;50.234;19.292;2022-09-12T00:28:43;13.90;;;9.30;;
69126;SDS011;56688;50.234;19.292;2022-09-12T00:31:12;12.90;;;9.30;;
69126;SDS011;56688;50.234;19.292;2022-09-12T00:33:46;13.90;;;9.90;;
69126;SDS011;56688;50.234;19.292;2022-09-12T00:36:14;16.60;;;10.10;;
69126;SDS011;56688;50.234;19.292;2022-09-12T00:38:43;15.30;;;10.00;;
69126;SDS011;56688;50.234;19.292;2022-09-12T00:41:15;14.80;;;9.40;;
69126;SDS011;56688;50.234;19.292;2022-09-12T00:43:49;15.70;;;10.30;;
69126;SDS011;56688;50.234;19.292;2022-09-12T00:46:24;13.80;;;10.00;;
69126;SDS011;56688;50.234;19.292;2022-09-12T00:48:57;14.90;;;10.60;;
69126;SDS011;56688;50.234;19.292;2022-09-12T00:51:27;14.90;;;10.40;;
69126;SDS011;56688;50.234;19.292;2022-09-12T00:53:57;15.80;;;10.20;;
69126;SDS011;56688;50.234;19.292;2022-09-12T00:56:28;10.10;;;8.50;;
69126;SDS011;56688;50.234;19.292;2022-09-12T01:01:43;10.70;;;8.00;;
69126;SDS011;56688;50.234;19.292;2022-09-12T01:04:11;11.80;;;8.50;;
69126;SDS011;56688;50.234;19.292;2022-09-12T01:06:39;9.60;;;7.80;;
69126;SDS011;56688;50.234;19.292;2022-09-12T01:09:11;11.80;;;8.30;;
69126;SDS011;56688;50.234;19.292;2022-09-12T01:11:41;10.20;;;7.90;;
69126;SDS011;56688;50.234;19.292;2022-09-12T01:14:08;11.80;;;8.40;;
69126;SDS011;56688;50.234;19.292;2022-09-12T01:16:35;11.80;;;8.00;;
69126;SDS011;56688;50.234;19.292;2022-09-12T01:21:54;10.40;;;8.40;;
69126;SDS011;56688;50.234;19.292;2022-09-12T01:30:20;13.30;;;9.70;;
69126;SDS011;56688;50.234;19.292;2022-09-12T01:38:33;14.50;;;9.60;;
69126;SDS011;56688;50.234;19.292;2022-09-12T01:41:10;13.40;;;9.90;;
69126;SDS011;56688;50.234;19.292;2022-09-12T01:44:03;14.30;;;9.50;;
69126;SDS011;56688;50.234;19.292;2022-09-12T01:49:20;12.20;;;9.30;;
69126;SDS011;56688;50.234;19.292;2022-09-12T01:57:02;12.10;;;8.60;;
69126;SDS011;56688;50.234;19.292;2022-09-12T01:59:37;12.40;;;9.30;;
69126;SDS011;56688;50.234;19.292;2022-09-12T02:02:10;13.30;;;10.10;;
69126;SDS011;56688;50.234;19.292;2022-09-12T02:07:30;15.90;;;9.90;;
69126;SDS011;56688;50.234;19.292;2022-09-12T02:10:05;13.40;;;9.50;;
69126;SDS011;56688;50.234;19.292;2022-09-12T02:12:39;11.90;;;9.30;;
69126;SDS011;56688;50.234;19.292;2022-09-12T02:15:14;13.30;;;9.70;;
69126;SDS011;56688;50.234;19.292;2022-09-12T02:17:45;12.10;;;9.70;;
69126;SDS011;56688;50.234;19.292;2022-09-12T02:20:17;12.40;;;8.90;;
69126;SDS011;56688;50.234;19.292;2022-09-12T02:23:10;11.70;;;9.00;;
69126;SDS011;56688;50.234;19.292;2022-09-12T02:25:41;12.60;;;8.80;;
69126;SDS011;56688;50.234;19.292;2022-09-12T02:28:14;10.00;;;7.40;;
69126;SDS011;56688;50.234;19.292;2022-09-12T02:30:49;8.80;;;7.10;;
69126;SDS011;56688;50.234;19.292;2022-09-12T02:36:34;8.80;;;7.10;;
69126;SDS011;56688;50.234;19.292;2022-09-12T02:39:09;8.90;;;7.20;;
69126;SDS011;56688;50.234;19.292;2022-09-12T02:41:36;9.30;;;7.00;;
69126;SDS011;56688;50.234;19.292;2022-09-12T02:44:03;8.40;;;6.70;;
69126;SDS011;56688;50.234;19.292;2022-09-12T02:46:34;8.10;;;6.70;;
69126;SDS011;56688;50.234;19.292;2022-09-12T02:49:05;8.30;;;6.10;;
69126;SDS011;56688;50.234;19.292;2022-09-12T02:51:35;8.60;;;5.80;;
69126;SDS011;56688;50.234;19.292;2022-09-12T02:54:02;8.50;;;5.80;;
69126;SDS011;56688;50.234;19.292;2022-09-12T02:56:32;7.30;;;5.80;;
69126;SDS011;56688;50.234;19.292;2022-09-12T02:59:01;7.40;;;5.70;;
69126;SDS011;56688;50.234;19.292;2022-09-12T03:04:34;7.80;;;6.10;;
69126;SDS011;56688;50.234;19.292;2022-09-12T03:13:14;9.50;;;5.90;;
69126;SDS011;56688;50.234;19.292;2022-09-12T03:15:58;10.40;;;6.30;;
69126;SDS011;56688;50.234;19.292;2022-09-12T03:18:32;8.20;;;5.80;;
69126;SDS011;56688;50.234;19.292;2022-09-12T03:29:14;8.90;;;6.70;;
69126;SDS011;56688;50.234;19.292;2022-09-12T03:31:48;9.50;;;6.40;;
69126;SDS011;56688;50.234;19.292;2022-09-12T03:34:17;8.50;;;6.40;;
69126;SDS011;56688;50.234;19.292;2022-09-12T03:36:45;7.20;;;5.60;;
69126;SDS011;56688;50.234;19.292;2022-09-12T03:39:13;9.00;;;6.20;;
69126;SDS011;56688;50.234;19.292;2022-09-12T03:41:40;12.20;;;6.20;;
69126;SDS011;56688;50.234;19.292;2022-09-12T03:44:07;7.90;;;6.10;;
69126;SDS011;56688;50.234;19.292;2022-09-12T03:46:34;10.20;;;6.40;;
69126;SDS011;56688;50.234;19.292;2022-09-12T03:49:02;7.80;;;6.10;;
69126;SDS011;56688;50.234;19.292;2022-09-12T03:51:28;8.70;;;6.20;;
69126;SDS011;56688;50.234;19.292;2022-09-12T03:53:56;8.00;;;6.40;;
69126;SDS011;56688;50.234;19.292;2022-09-12T03:56:23;11.00;;;7.20;;
69126;SDS011;56688;50.234;19.292;2022-09-12T03:58:50;12.00;;;7.10;;
69126;SDS011;56688;50.234;19.292;2022-09-12T04:01:17;12.00;;;6.30;;
69126;SDS011;56688;50.234;19.292;2022-09-12T04:03:47;8.50;;;6.20;;
69126;SDS011;56688;50.234;19.292;2022-09-12T04:06:16;9.70;;;6.40;;
69126;SDS011;56688;50.234;19.292;2022-09-12T04:08:47;10.20;;;6.70;;
69126;SDS011;56688;50.234;19.292;2022-09-12T04:11:16;7.30;;;6.30;;
69126;SDS011;56688;50.234;19.292;2022-09-12T04:13:44;11.10;;;7.30;;
69126;SDS011;56688;50.234;19.292;2022-09-12T04:16:12;15.60;;;7.10;;
69126;SDS011;56688;50.234;19.292;2022-09-12T04:18:40;9.40;;;6.70;;
69126;SDS011;56688;50.234;19.292;2022-09-12T04:21:09;10.10;;;6.60;;
69126;SDS011;56688;50.234;19.292;2022-09-12T04:23:38;9.70;;;6.50;;
69126;SDS011;56688;50.234;19.292;2022-09-12T04:26:05;7.80;;;6.90;;
69126;SDS011;56688;50.234;19.292;2022-09-12T04:28:32;11.50;;;7.10;;
69126;SDS011;56688;50.234;19.292;2022-09-12T04:31:01;9.20;;;7.00;;
69126;SDS011;56688;50.234;19.292;2022-09-12T04:33:31;12.30;;;7.20;;
69126;SDS011;56688;50.234;19.292;2022-09-12T04:36:03;15.10;;;8.30;;
69126;SDS011;56688;50.234;19.292;2022-09-12T04:38:32;11.30;;;7.90;;
69126;SDS011;56688;50.234;19.292;2022-09-12T04:43:46;12.90;;;7.60;;
69126;SDS011;56688;50.234;19.292;2022-09-12T04:46:18;11.10;;;8.20;;
69126;SDS011;56688;50.234;19.292;2022-09-12T04:48:46;13.80;;;9.10;;
69126;SDS011;56688;50.234;19.292;2022-09-12T04:51:19;17.50;;;10.00;;
69126;SDS011;56688;50.234;19.292;2022-09-12T04:53:49;16.30;;;10.00;;
69126;SDS011;56688;50.234;19.292;2022-09-12T04:56:18;14.00;;;10.60;;
69126;SDS011;56688;50.234;19.292;2022-09-12T04:58:46;14.30;;;10.70;;
69126;SDS011;56688;50.234;19.292;2022-09-12T05:01:15;15.10;;;10.60;;
69126;SDS011;56688;50.234;19.292;2022-09-12T05:03:45;16.80;;;10.30;;
69126;SDS011;56688;50.234;19.292;2022-09-12T05:06:14;13.60;;;10.00;;
69126;SDS011;56688;50.234;19.292;2022-09-12T05:08:44;13.20;;;10.00;;
69126;SDS011;56688;50.234;19.292;2022-09-12T05:11:12;15.70;;;10.30;;
69126;SDS011;56688;50.234;19.292;2022-09-12T05:13:41;14.40;;;10.60;;
69126;SDS011;56688;50.234;19.292;2022-09-12T05:16:09;15.30;;;10.10;;
69126;SDS011;56688;50.234;19.292;2022-09-12T05:18:37;13.90;;;9.00;;
69126;SDS011;56688;50.234;19.292;2022-09-12T05:21:05;12.90;;;9.00;;
69126;SDS011;56688;50.234;19.292;2022-09-12T05:23:34;15.60;;;10.00;;
69126;SDS011;56688;50.234;19.292;2022-09-12T05:26:03;13.50;;;9.50;;
69126;SDS011;56688;50.234;19.292;2022-09-12T05:28:33;14.80;;;10.00;;
69126;SDS011;56688;50.234;19.292;2022-09-12T05:31:04;14.40;;;9.70;;
69126;SDS011;56688;50.234;19.292;2022-09-12T05:33:34;13.10;;;9.90;;
69126;SDS011;56688;50.234;19.292;2022-09-12T05:36:03;13.10;;;9.10;;
69126;SDS011;56688;50.234;19.292;2022-09-12T05:38:34;10.80;;;8.30;;
69126;SDS011;56688;50.234;19.292;2022-09-12T05:41:12;12.10;;;9.00;;
69126;SDS011;56688;50.234;19.292;2022-09-12T05:43:46;16.10;;;9.50;;
69126;SDS011;56688;50.234;19.292;2022-09-12T05:46:18;14.00;;;9.80;;
69126;SDS011;56688;50.234;19.292;2022-09-12T05:48:47;14.50;;;10.40;;
69126;SDS011;56688;50.234;19.292;2022-09-12T05:51:22;10.70;;;8.80;;
69126;SDS011;56688;50.234;19.292;2022-09-12T05:53:53;14.90;;;9.50;;
69126;SDS011;56688;50.234;19.292;2022-09-12T05:56:23;14.30;;;9.10;;
69126;SDS011;56688;50.234;19.292;2022-09-12T05:58:53;14.90;;;10.00;;
69126;SDS011;56688;50.234;19.292;2022-09-12T06:01:25;15.70;;;10.20;;
69126;SDS011;56688;50.234;19.292;2022-09-12T06:03:54;13.10;;;10.00;;
69126;SDS011;56688;50.234;19.292;2022-09-12T06:06:23;18.40;;;11.20;;
69126;SDS011;56688;50.234;19.292;2022-09-12T06:08:51;15.10;;;10.90;;
69126;SDS011;56688;50.234;19.292;2022-09-12T06:11:20;11.50;;;9.40;;
69126;SDS011;56688;50.234;19.292;2022-09-12T06:13:49;14.70;;;9.70;;
69126;SDS011;56688;50.234;19.292;2022-09-12T06:18:47;11.60;;;9.00;;
69126;SDS011;56688;50.234;19.292;2022-09-12T06:21:15;12.10;;;9.20;;
69126;SDS011;56688;50.234;19.292;2022-09-12T06:23:42;12.20;;;8.80;;
69126;SDS011;56688;50.234;19.292;2022-09-12T06:26:11;13.50;;;8.50;;
69126;SDS011;56688;50.234;19.292;2022-09-12T06:28:41;14.50;;;8.90;;
69126;SDS011;56688;50.234;19.292;2022-09-12T06:31:11;11.80;;;8.20;;
69126;SDS011;56688;50.234;19.292;2022-09-12T06:33:42;11.20;;;7.60;;
69126;SDS011;56688;50.234;19.292;2022-09-12T06:36:12;9.50;;;6.60;;
69126;SDS011;56688;50.234;19.292;2022-09-12T06:38:41;9.30;;;6.60;;
69126;SDS011;56688;50.234;19.292;2022-09-12T06:41:10;9.80;;;7.00;;
69126;SDS011;56688;50.234;19.292;2022-09-12T06:43:38;13.20;;;7.50;;
69126;SDS011;56688;50.234;19.292;2022-09-12T06:46:07;11.70;;;6.70;;
69126;SDS011;56688;50.234;19.292;2022-09-12T06:48:34;9.50;;;6.50;;
69126;SDS011;56688;50.234;19.292;2022-09-12T06:51:09;8.60;;;5.30;;
69126;SDS011;56688;50.234;19.292;2022-09-12T06:53:39;7.70;;;5.40;;
69126;SDS011;56688;50.234;19.292;2022-09-12T06:58:50;8.10;;;5.70;;
69126;SDS011;56688;50.234;19.292;2022-09-12T07:01:20;6.60;;;4.70;;
69126;SDS011;56688;50.234;19.292;2022-09-12T07:03:49;8.70;;;5.00;;
69126;SDS011;56688;50.234;19.292;2022-09-12T07:06:18;7.80;;;5.00;;
69126;SDS011;56688;50.234;19.292;2022-09-12T07:08:47;7.00;;;4.90;;
69126;SDS011;56688;50.234;19.292;2022-09-12T07:11:16;5.50;;;4.30;;
69126;SDS011;56688;50.234;19.292;2022-09-12T07:13:47;6.10;;;3.80;;
69126;SDS011;56688;50.234;19.292;2022-09-12T07:16:16;7.20;;;3.70;;
69126;SDS011;56688;50.234;19.292;2022-09-12T07:18:49;5.30;;;3.20;;
69126;SDS011;56688;50.234;19.292;2022-09-12T07:21:18;4.80;;;3.50;;
69126;SDS011;56688;50.234;19.292;2022-09-12T07:23:46;7.20;;;4.00;;
69126;SDS011;56688;50.234;19.292;2022-09-12T07:26:14;5.70;;;3.50;;
69126;SDS011;56688;50.234;19.292;2022-09-12T07:28:42;7.60;;;3.00;;
69126;SDS011;56688;50.234;19.292;2022-09-12T07:33:38;6.80;;;3.40;;
69126;SDS011;56688;50.234;19.292;2022-09-12T07:36:07;5.20;;;3.10;;
69126;SDS011;56688;50.234;19.292;2022-09-12T07:38:37;5.40;;;2.60;;
69126;SDS011;56688;50.234;19.292;2022-09-12T07:41:13;3.70;;;2.40;;
69126;SDS011;56688;50.234;19.292;2022-09-12T07:43:51;5.50;;;2.30;;
69126;SDS011;56688;50.234;19.292;2022-09-12T07:46:20;3.50;;;2.10;;
69126;SDS011;56688;50.234;19.292;2022-09-12T07:48:48;3.30;;;2.00;;
69126;SDS011;56688;50.234;19.292;2022-09-12T07:51:17;4.70;;;2.10;;
69126;SDS011;56688;50.234;19.292;2022-09-12T07:53:44;4.90;;;2.00;;
69126;SDS011;56688;50.234;19.292;2022-09-12T07:56:12;7.00;;;2.40;;
69126;SDS011;56688;50.234;19.292;2022-09-12T07:58:39;6.00;;;2.00;;
69126;SDS011;56688;50.234;19.292;2022-09-12T08:01:09;3.30;;;2.10;;
69126;SDS011;56688;50.234;19.292;2022-09-12T08:03:38;5.80;;;2.00;;
69126;SDS011;56688;50.234;19.292;2022-09-12T08:06:07;6.00;;;2.30;;
69126;SDS011;56688;50.234;19.292;2022-09-12T08:08:36;3.90;;;1.70;;
69126;SDS011;56688;50.234;19.292;2022-09-12T08:11:05;6.20;;;2.10;;
69126;SDS011;56688;50.234;19.292;2022-09-12T08:13:34;3.10;;;1.80;;
69126;SDS011;56688;50.234;19.292;2022-09-12T08:16:04;3.20;;;1.60;;
69126;SDS011;56688;50.234;19.292;2022-09-12T08:18:34;2.50;;;1.70;;
69126;SDS011;56688;50.234;19.292;2022-09-12T08:21:02;4.20;;;1.80;;
69126;SDS011;56688;50.234;19.292;2022-09-12T08:23:31;4.00;;;2.00;;
69126;SDS011;56688;50.234;19.292;2022-09-12T08:25:59;3.00;;;1.80;;
69126;SDS011;56688;50.234;19.292;2022-09-12T08:28:33;3.30;;;1.60;;
69126;SDS011;56688;50.234;19.292;2022-09-12T08:31:10;3.70;;;1.80;;
69126;SDS011;56688;50.234;19.292;2022-09-12T08:33:40;3.70;;;2.10;;
69126;SDS011;56688;50.234;19.292;2022-09-12T08:38:41;4.00;;;2.00;;
69126;SDS011;56688;50.234;19.292;2022-09-12T08:41:13;2.20;;;1.60;;
69126;SDS011;56688;50.234;19.292;2022-09-12T08:46:42;4.30;;;1.80;;
69126;SDS011;56688;50.234;19.292;2022-09-12T08:49:22;5.20;;;2.00;;
69126;SDS011;56688;50.234;19.292;2022-09-12T08:51:54;4.80;;;1.80;;
69126;SDS011;56688;50.234;19.292;2022-09-12T08:54:26;4.10;;;1.70;;
69126;SDS011;56688;50.234;19.292;2022-09-12T08:56:57;2.90;;;1.60;;
69126;SDS011;56688;50.234;19.292;2022-09-12T08:59:30;2.30;;;1.80;;
69126;SDS011;56688;50.234;19.292;2022-09-12T09:02:03;2.40;;;1.70;;
69126;SDS011;56688;50.234;19.292;2022-09-12T09:04:49;3.90;;;2.20;;
69126;SDS011;56688;50.234;19.292;2022-09-12T09:13:10;3.00;;;1.60;;
69126;SDS011;56688;50.234;19.292;2022-09-12T09:16:12;2.60;;;1.60;;
69126;SDS011;56688;50.234;19.292;2022-09-12T09:18:46;3.90;;;2.00;;
69126;SDS011;56688;50.234;19.292;2022-09-12T09:23:49;2.90;;;1.70;;
69126;SDS011;56688;50.234;19.292;2022-09-12T09:26:25;3.00;;;1.50;;
69126;SDS011;56688;50.234;19.292;2022-09-12T09:29:04;3.10;;;1.40;;
69126;SDS011;56688;50.234;19.292;2022-09-12T09:31:39;3.50;;;1.90;;
69126;SDS011;56688;50.234;19.292;2022-09-12T09:34:12;3.70;;;1.90;;
69126;SDS011;56688;50.234;19.292;2022-09-12T09:45:12;5.00;;;2.00;;
69126;SDS011;56688;50.234;19.292;2022-09-12T09:47:50;3.40;;;1.60;;
69126;SDS011;56688;50.234;19.292;2022-09-12T09:50:23;2.40;;;1.90;;
69126;SDS011;56688;50.234;19.292;2022-09-12T09:52:50;3.40;;;1.70;;
69126;SDS011;56688;50.234;19.292;2022-09-12T09:55:20;5.80;;;2.30;;
69126;SDS011;56688;50.234;19.292;2022-09-12T09:57:51;3.70;;;1.60;;
69126;SDS011;56688;50.234;19.292;2022-09-12T10:05:54;2.60;;;2.00;;
69126;SDS011;56688;50.234;19.292;2022-09-12T10:08:27;2.80;;;1.90;;
69126;SDS011;56688;50.234;19.292;2022-09-12T10:10:58;3.10;;;1.70;;
69126;SDS011;56688;50.234;19.292;2022-09-12T10:16:00;4.90;;;2.10;;
69126;SDS011;56688;50.234;19.292;2022-09-12T10:18:33;2.80;;;2.00;;
69126;SDS011;56688;50.234;19.292;2022-09-12T10:21:05;4.00;;;1.90;;
69126;SDS011;56688;50.234;19.292;2022-09-12T10:23:40;2.90;;;1.90;;
69126;SDS011;56688;50.234;19.292;2022-09-12T10:26:09;2.90;;;1.80;;
69126;SDS011;56688;50.234;19.292;2022-09-12T10:31:09;4.20;;;1.80;;
69126;SDS011;56688;50.234;19.292;2022-09-12T10:33:45;2.90;;;2.00;;
69126;SDS011;56688;50.234;19.292;2022-09-12T10:36:19;2.20;;;1.80;;
69126;SDS011;56688;50.234;19.292;2022-09-12T10:38:48;4.50;;;1.60;;
69126;SDS011;56688;50.234;19.292;2022-09-12T10:41:17;2.20;;;1.70;;
69126;SDS011;56688;50.234;19.292;2022-09-12T10:43:45;2.70;;;1.60;;
69126;SDS011;56688;50.234;19.292;2022-09-12T10:48:50;3.60;;;1.80;;
69126;SDS011;56688;50.234;19.292;2022-09-12T10:51:37;3.60;;;1.70;;
69126;SDS011;56688;50.234;19.292;2022-09-12T10:54:04;2.80;;;1.60;;
69126;SDS011;56688;50.234;19.292;2022-09-12T11:04:55;4.10;;;1.90;;
69126;SDS011;56688;50.234;19.292;2022-09-12T11:18:27;3.30;;;1.60;;
69126;SDS011;56688;50.234;19.292;2022-09-12T11:21:20;3.30;;;1.70;;
69126;SDS011;56688;50.234;19.292;2022-09-12T11:24:01;3.10;;;1.70;;
69126;SDS011;56688;50.234;19.292;2022-09-12T11:29:24;3.60;;;1.80;;
69126;SDS011;56688;50.234;19.292;2022-09-12T11:34:51;5.10;;;1.60;;
69126;SDS011;56688;50.234;19.292;2022-09-12T11:40:31;3.80;;;1.60;;
69126;SDS011;56688;50.234;19.292;2022-09-12T11:43:02;4.30;;;1.60;;
69126;SDS011;56688;50.234;19.292;2022-09-12T11:45:39;2.60;;;1.60;;
69126;SDS011;56688;50.234;19.292;2022-09-12T11:51:11;5.20;;;1.80;;
69126;SDS011;56688;50.234;19.292;2022-09-12T11:53:43;3.60;;;1.40;;
69126;SDS011;56688;50.234;19.292;2022-09-12T11:56:19;4.10;;;1.50;;
69126;SDS011;56688;50.234;19.292;2022-09-12T11:58:49;3.60;;;1.60;;
69126;SDS011;56688;50.234;19.292;2022-09-12T12:01:25;5.20;;;1.60;;
69126;SDS011;56688;50.234;19.292;2022-09-12T12:03:57;2.70;;;1.50;;
69126;SDS011;56688;50.234;19.292;2022-09-12T12:06:35;1.60;;;1.50;;
69126;SDS011;56688;50.234;19.292;2022-09-12T12:09:12;2.10;;;1.50;;
69126;SDS011;56688;50.234;19.292;2022-09-12T12:11:42;2.50;;;1.50;;
69126;SDS011;56688;50.234;19.292;2022-09-12T12:16:56;1.70;;;1.30;;
69126;SDS011;56688;50.234;19.292;2022-09-12T12:19:32;1.70;;;1.30;;
69126;SDS011;56688;50.234;19.292;2022-09-12T12:22:04;4.00;;;1.20;;
69126;SDS011;56688;50.234;19.292;2022-09-12T12:24:34;3.00;;;1.30;;
69126;SDS011;56688;50.234;19.292;2022-09-12T12:40:58;2.60;;;1.40;;
69126;SDS011;56688;50.234;19.292;2022-09-12T12:43:44;3.10;;;1.40;;
69126;SDS011;56688;50.234;19.292;2022-09-12T12:46:13;3.80;;;1.20;;
69126;SDS011;56688;50.234;19.292;2022-09-12T12:48:45;2.00;;;1.40;;
69126;SDS011;56688;50.234;19.292;2022-09-12T12:51:34;5.90;;;1.50;;
69126;SDS011;56688;50.234;19.292;2022-09-12T12:54:03;1.60;;;1.20;;
69126;SDS011;56688;50.234;19.292;2022-09-12T12:56:59;1.80;;;1.30;;
69126;SDS011;56688;50.234;19.292;2022-09-12T12:59:28;2.20;;;1.40;;
69126;SDS011;56688;50.234;19.292;2022-09-12T13:01:56;1.90;;;1.30;;
69126;SDS011;56688;50.234;19.292;2022-09-12T13:04:26;1.30;;;1.10;;
69126;SDS011;56688;50.234;19.292;2022-09-12T13:06:57;2.10;;;1.30;;
69126;SDS011;56688;50.234;19.292;2022-09-12T13:09:36;1.90;;;1.30;;
69126;SDS011;56688;50.234;19.292;2022-09-12T13:12:16;2.90;;;1.10;;
69126;SDS011;56688;50.234;19.292;2022-09-12T13:14:48;3.80;;;1.20;;
69126;SDS011;56688;50.234;19.292;2022-09-12T13:17:19;2.40;;;1.30;;
69126;SDS011;56688;50.234;19.292;2022-09-12T13:19:53;1.90;;;1.10;;
69126;SDS011;56688;50.234;19.292;2022-09-12T13:22:51;1.80;;;1.20;;
69126;SDS011;56688;50.234;19.292;2022-09-12T13:25:23;2.60;;;1.30;;
69126;SDS011;56688;50.234;19.292;2022-09-12T13:30:38;4.30;;;1.20;;
69126;SDS011;56688;50.234;19.292;2022-09-12T13:33:08;1.80;;;1.40;;
69126;SDS011;56688;50.234;19.292;2022-09-12T13:38:24;2.60;;;1.20;;
69126;SDS011;56688;50.234;19.292;2022-09-12T13:44:09;2.60;;;1.30;;
69126;SDS011;56688;50.234;19.292;2022-09-12T13:46:39;2.00;;;1.40;;
69126;SDS011;56688;50.234;19.292;2022-09-12T13:51:58;2.40;;;1.40;;
69126;SDS011;56688;50.234;19.292;2022-09-12T13:54:26;3.60;;;1.20;;
69126;SDS011;56688;50.234;19.292;2022-09-12T13:56:54;2.80;;;1.40;;
69126;SDS011;56688;50.234;19.292;2022-09-12T13:59:21;2.90;;;1.50;;
69126;SDS011;56688;50.234;19.292;2022-09-12T14:01:48;2.60;;;1.60;;
69126;SDS011;56688;50.234;19.292;2022-09-12T14:04:17;4.10;;;1.40;;
69126;SDS011;56688;50.234;19.292;2022-09-12T14:07:07;3.40;;;1.60;;
69126;SDS011;56688;50.234;19.292;2022-09-12T14:09:37;2.30;;;1.50;;
69126;SDS011;56688;50.234;19.292;2022-09-12T14:14:51;2.70;;;1.80;;
69126;SDS011;56688;50.234;19.292;2022-09-12T14:17:27;1.90;;;1.20;;
69126;SDS011;56688;50.234;19.292;2022-09-12T14:19:59;2.30;;;1.60;;
69126;SDS011;56688;50.234;19.292;2022-09-12T14:22:29;2.80;;;1.20;;
69126;SDS011;56688;50.234;19.292;2022-09-12T14:24:57;1.50;;;1.40;;
69126;SDS011;56688;50.234;19.292;2022-09-12T14:27:27;2.00;;;1.40;;
69126;SDS011;56688;50.234;19.292;2022-09-12T14:30:03;2.10;;;1.30;;
69126;SDS011;56688;50.234;19.292;2022-09-12T14:32:34;3.50;;;1.50;;
69126;SDS011;56688;50.234;19.292;2022-09-12T14:37:46;3.00;;;1.40;;
69126;SDS011;56688;50.234;19.292;2022-09-12T14:40:18;2.80;;;1.30;;
69126;SDS011;56688;50.234;19.292;2022-09-12T14:42:48;1.70;;;1.50;;
69126;SDS011;56688;50.234;19.292;2022-09-12T14:45:22;2.90;;;1.50;;
69126;SDS011;56688;50.234;19.292;2022-09-12T14:47:54;2.60;;;1.50;;
69126;SDS011;56688;50.234;19.292;2022-09-12T14:50:23;2.20;;;1.40;;
69126;SDS011;56688;50.234;19.292;2022-09-12T14:55:44;2.60;;;1.80;;
69126;SDS011;56688;50.234;19.292;2022-09-12T14:58:21;3.50;;;1.60;;
69126;SDS011;56688;50.234;19.292;2022-09-12T15:03:28;2.50;;;1.90;;
69126;SDS011;56688;50.234;19.292;2022-09-12T15:05:56;5.00;;;2.30;;
69126;SDS011;56688;50.234;19.292;2022-09-12T15:08:24;3.30;;;2.30;;
69126;SDS011;56688;50.234;19.292;2022-09-12T15:10:52;3.10;;;2.30;;
69126;SDS011;56688;50.234;19.292;2022-09-12T15:13:20;5.40;;;2.50;;
69126;SDS011;56688;50.234;19.292;2022-09-12T15:15:49;5.70;;;2.00;;
69126;SDS011;56688;50.234;19.292;2022-09-12T15:18:18;4.20;;;2.20;;
69126;SDS011;56688;50.234;19.292;2022-09-12T15:20:47;3.80;;;1.80;;
69126;SDS011;56688;50.234;19.292;2022-09-12T15:23:18;3.30;;;2.20;;
69126;SDS011;56688;50.234;19.292;2022-09-12T15:25:50;4.80;;;2.20;;
69126;SDS011;56688;50.234;19.292;2022-09-12T15:28:18;3.50;;;2.30;;
69126;SDS011;56688;50.234;19.292;2022-09-12T15:30:47;3.70;;;2.30;;
69126;SDS011;56688;50.234;19.292;2022-09-12T15:33:18;4.90;;;2.50;;
69126;SDS011;56688;50.234;19.292;2022-09-12T15:35:48;4.50;;;2.20;;
69126;SDS011;56688;50.234;19.292;2022-09-12T15:38:15;3.10;;;2.20;;
69126;SDS011;56688;50.234;19.292;2022-09-12T15:40:42;3.70;;;2.10;;
69126;SDS011;56688;50.234;19.292;2022-09-12T15:43:11;3.60;;;2.20;;
69126;SDS011;56688;50.234;19.292;2022-09-12T15:45:40;2.80;;;1.80;;
69126;SDS011;56688;50.234;19.292;2022-09-12T15:48:08;2.90;;;2.10;;
69126;SDS011;56688;50.234;19.292;2022-09-12T15:50:35;3.10;;;2.10;;
69126;SDS011;56688;50.234;19.292;2022-09-12T15:53:02;3.40;;;2.10;;
69126;SDS011;56688;50.234;19.292;2022-09-12T15:55:29;4.90;;;2.30;;
69126;SDS011;56688;50.234;19.292;2022-09-12T15:57:57;4.60;;;2.20;;
69126;SDS011;56688;50.234;19.292;2022-09-12T16:00:32;2.00;;;1.80;;
69126;SDS011;56688;50.234;19.292;2022-09-12T16:02:59;4.40;;;2.30;;
69126;SDS011;56688;50.234;19.292;2022-09-12T16:05:26;5.40;;;2.50;;
69126;SDS011;56688;50.234;19.292;2022-09-12T16:07:53;4.60;;;2.10;;
69126;SDS011;56688;50.234;19.292;2022-09-12T16:10:22;2.90;;;2.10;;
69126;SDS011;56688;50.234;19.292;2022-09-12T16:12:51;3.80;;;2.10;;
69126;SDS011;56688;50.234;19.292;2022-09-12T16:15:19;4.70;;;2.40;;
69126;SDS011;56688;50.234;19.292;2022-09-12T16:17:48;4.20;;;2.20;;
69126;SDS011;56688;50.234;19.292;2022-09-12T16:20:15;3.40;;;2.30;;
69126;SDS011;56688;50.234;19.292;2022-09-12T16:22:42;4.10;;;2.40;;
69126;SDS011;56688;50.234;19.292;2022-09-12T16:25:09;5.50;;;2.30;;
69126;SDS011;56688;50.234;19.292;2022-09-12T16:27:36;4.40;;;2.40;;
69126;SDS011;56688;50.234;19.292;2022-09-12T16:30:04;4.20;;;2.30;;
69126;SDS011;56688;50.234;19.292;2022-09-12T16:32:32;4.60;;;2.60;;
69126;SDS011;56688;50.234;19.292;2022-09-12T16:34:59;5.10;;;2.60;;
69126;SDS011;56688;50.234;19.292;2022-09-12T16:37:27;4.90;;;2.50;;
69126;SDS011;56688;50.234;19.292;2022-09-12T16:39:54;7.30;;;2.80;;
69126;SDS011;56688;50.234;19.292;2022-09-12T16:42:21;2.90;;;2.50;;
69126;SDS011;56688;50.234;19.292;2022-09-12T16:44:48;6.50;;;2.70;;
69126;SDS011;56688;50.234;19.292;2022-09-12T16:47:15;5.10;;;2.50;;
69126;SDS011;56688;50.234;19.292;2022-09-12T16:49:42;5.10;;;2.50;;
69126;SDS011;56688;50.234;19.292;2022-09-12T16:52:08;6.50;;;2.60;;
69126;SDS011;56688;50.234;19.292;2022-09-12T16:54:36;5.40;;;3.20;;
69126;SDS011;56688;50.234;19.292;2022-09-12T16:57:03;4.30;;;3.20;;
69126;SDS011;56688;50.234;19.292;2022-09-12T16:59:32;14.40;;;6.10;;
69126;SDS011;56688;50.234;19.292;2022-09-12T17:01:59;10.20;;;6.20;;
69126;SDS011;56688;50.234;19.292;2022-09-12T17:04:26;10.00;;;5.00;;
69126;SDS011;56688;50.234;19.292;2022-09-12T17:06:53;10.00;;;4.90;;
69126;SDS011;56688;50.234;19.292;2022-09-12T17:09:20;11.00;;;5.40;;
69126;SDS011;56688;50.234;19.292;2022-09-12T17:11:47;9.80;;;5.30;;
69126;SDS011;56688;50.234;19.292;2022-09-12T17:14:15;8.60;;;4.30;;
69126;SDS011;56688;50.234;19.292;2022-09-12T17:16:43;7.30;;;4.00;;
69126;SDS011;56688;50.234;19.292;2022-09-12T17:19:18;8.60;;;4.10;;
69126;SDS011;56688;50.234;19.292;2022-09-12T17:21:48;6.30;;;4.10;;
69126;SDS011;56688;50.234;19.292;2022-09-12T17:24:16;7.30;;;3.60;;
69126;SDS011;56688;50.234;19.292;2022-09-12T17:26:43;7.70;;;3.70;;
69126;SDS011;56688;50.234;19.292;2022-09-12T17:29:11;6.40;;;3.60;;
69126;SDS011;56688;50.234;19.292;2022-09-12T17:31:39;9.40;;;3.60;;
69126;SDS011;56688;50.234;19.292;2022-09-12T17:34:07;8.30;;;3.50;;